createdAt,value
2023-04-18T00:00:37.311Z,95780.94
2023-04-18T00:03:05.444Z,95800.34
2023-04-18T00:05:33.387Z,95814.59
2023-04-18T00:08:01.467Z,95798.41
2023-04-18T00:10:29.280Z,95817.50
2023-04-18T00:13:00.437Z,95799.53
2023-04-18T00:15:29.374Z,95774.91
2023-04-18T00:17:57.518Z,95775.41
2023-04-18T00:20:26.924Z,95789.09
2023-04-18T00:22:55.095Z,95784.88
2023-04-18T00:25:23.018Z,95792.38
2023-04-18T00:27:50.914Z,95795.69
2023-04-18T00:30:20.268Z,95790.75
2023-04-18T00:32:48.640Z,95791.56
2023-04-18T00:35:16.602Z,95827.50
2023-04-18T00:37:44.428Z,95842.50
2023-04-18T00:40:12.875Z,95833.22
2023-04-18T00:42:40.640Z,95823.91
2023-04-18T00:45:09.481Z,95844.16
2023-04-18T00:47:38.756Z,95845.13
2023-04-18T00:50:07.899Z,95841.53
2023-04-18T00:52:36.128Z,95827.00
2023-04-18T00:55:05.079Z,95852.63
2023-04-18T00:57:32.925Z,95843.34
2023-04-18T01:00:01.004Z,95854.59
2023-04-18T01:02:31.356Z,95848.25
2023-04-18T01:05:00.642Z,95840.72
2023-04-18T01:07:28.578Z,95839.91
2023-04-18T01:09:56.415Z,95823.91
2023-04-18T01:12:24.242Z,95811.84
2023-04-18T01:14:52.094Z,95829.13
2023-04-18T01:17:20.201Z,95832.38
2023-04-18T01:19:47.994Z,95844.16
2023-04-18T01:22:18.390Z,95848.41
2023-04-18T01:24:47.675Z,95841.69
2023-04-18T01:27:15.544Z,95910.66
2023-04-18T01:29:43.314Z,95944.78
2023-04-18T01:32:11.249Z,95951.50
2023-04-18T01:34:38.991Z,95930.41
2023-04-18T01:37:07.145Z,95892.31
2023-04-18T01:39:35.011Z,95838.53
2023-04-18T01:42:04.252Z,95861.94
2023-04-18T01:44:32.060Z,95845.78
2023-04-18T01:46:59.861Z,95822.28
2023-04-18T01:49:27.770Z,95835.16
2023-04-18T01:51:55.675Z,95825.53
2023-04-18T01:54:23.590Z,95842.50
2023-04-18T01:56:51.349Z,95822.28
2023-04-18T01:59:20.521Z,95801.19
2023-04-18T02:01:48.390Z,95769.03
2023-04-18T02:04:16.360Z,95761.19
2023-04-18T02:06:44.346Z,95742.28
2023-04-18T02:09:12.440Z,95725.63
2023-04-18T02:11:40.296Z,95726.44
2023-04-18T02:14:08.037Z,95706.88
2023-04-18T02:16:37.296Z,95687.59
2023-04-18T02:19:06.285Z,95717.31
2023-04-18T02:21:34.142Z,95731.50
2023-04-18T02:24:02.064Z,95724.00
2023-04-18T02:26:30.010Z,95719.09
2023-04-18T02:28:58.640Z,95752.72
2023-04-18T02:31:27.035Z,95754.34
2023-04-18T02:33:56.510Z,95731.50
2023-04-18T02:36:26.108Z,95709.63
2023-04-18T02:38:54.012Z,95737.69
2023-04-18T02:41:21.910Z,95701.28
2023-04-18T02:43:49.764Z,95680.25
2023-04-18T02:46:17.599Z,95707.03
2023-04-18T02:48:45.451Z,95766.41
2023-04-18T02:51:14.602Z,95758.59
2023-04-18T02:53:42.610Z,95779.81
2023-04-18T02:56:10.608Z,95758.75
2023-04-18T02:58:38.408Z,95751.09
2023-04-18T03:01:06.417Z,95749.75
2023-04-18T03:03:34.252Z,95737.38
2023-04-18T03:06:02.071Z,95746.84
2023-04-18T03:08:31.323Z,95785.84
2023-04-18T03:10:59.126Z,95805.56
2023-04-18T03:13:27.101Z,95798.56
2023-04-18T03:15:55.326Z,95835.97
2023-04-18T03:18:23.088Z,95825.53
2023-04-18T03:20:51.312Z,95816.63
2023-04-18T03:23:19.085Z,95840.06
2023-04-18T03:25:48.237Z,95853.47
2023-04-18T03:28:16.035Z,95866.34
2023-04-18T03:30:43.937Z,95876.47
2023-04-18T03:33:11.881Z,95861.13
2023-04-18T03:35:39.677Z,95857.84
2023-04-18T03:38:07.492Z,95858.69
2023-04-18T03:40:35.437Z,95874.84
2023-04-18T03:43:04.660Z,95883.16
2023-04-18T03:45:32.858Z,95891.66
2023-04-18T03:48:00.666Z,95908.81
2023-04-18T03:50:28.573Z,95891.13
2023-04-18T03:52:56.712Z,95962.09
2023-04-18T03:55:24.607Z,95999.19
2023-04-18T03:57:52.519Z,96033.72
2023-04-18T04:00:21.778Z,96064.13
2023-04-18T04:02:49.585Z,96071.31
2023-04-18T04:05:17.580Z,96099.94
2023-04-18T04:07:45.438Z,96116.78
2023-04-18T04:10:13.325Z,96143.97
2023-04-18T04:12:41.132Z,96164.41
2023-04-18T04:15:09.740Z,96221.19
2023-04-18T04:17:38.964Z,96237.28
2023-04-18T04:20:08.051Z,96265.25
2023-04-18T04:22:36.638Z,96316.31
2023-04-18T04:25:05.604Z,96344.22
2023-04-18T04:27:34.050Z,96361.91
2023-04-18T04:30:02.676Z,96378.13
2023-04-18T04:32:30.655Z,96394.19
2023-04-18T04:34:59.729Z,96412.19
2023-04-18T04:37:28.599Z,96431.69
2023-04-18T04:39:56.963Z,96454.66
2023-04-18T04:42:26.180Z,96496.16
2023-04-18T04:44:54.505Z,96537.78
2023-04-18T04:47:22.444Z,96575.38
2023-04-18T04:49:50.419Z,96627.50
2023-04-18T04:52:19.967Z,96646.72
2023-04-18T04:54:48.178Z,96682.53
2023-04-18T04:57:16.249Z,96691.88
2023-04-18T04:59:44.309Z,96757.38
2023-04-18T05:02:12.555Z,96822.13
2023-04-18T05:04:40.805Z,96830.19
2023-04-18T05:07:08.935Z,96933.72
2023-04-18T05:09:38.162Z,96983.91
2023-04-18T05:12:06.389Z,97028.28
2023-04-18T05:14:34.132Z,97073.38
2023-04-18T05:17:02.709Z,97111.91
2023-04-18T05:19:30.614Z,97183.66
2023-04-18T05:21:58.396Z,97260.41
2023-04-18T05:24:26.314Z,97349.09
2023-04-18T05:26:56.007Z,97462.47
2023-04-18T05:29:23.823Z,97609.91
2023-04-18T05:31:51.642Z,97722.06
2023-04-18T05:34:19.451Z,97926.00
2023-04-18T05:36:48.861Z,98075.72
2023-04-18T05:39:16.780Z,98278.50
2023-04-18T05:41:44.589Z,98474.41
2023-04-18T05:44:18.192Z,98617.47
2023-04-18T05:46:46.649Z,98775.69
2023-04-18T05:49:14.710Z,98947.22
2023-04-18T05:51:42.593Z,99058.72
2023-04-18T05:54:10.470Z,99210.81
2023-04-18T05:56:38.397Z,99323.91
2023-04-18T05:59:06.290Z,99292.75
2023-04-18T06:01:35.414Z,99433.25
2023-04-18T06:04:03.473Z,99554.31
2023-04-18T06:06:31.527Z,99635.81
2023-04-18T06:08:59.447Z,99638.47
2023-04-18T06:11:27.349Z,99731.22
2023-04-18T06:13:56.089Z,99810.03
2023-04-18T06:16:24.172Z,99869.06
2023-04-18T06:18:53.425Z,99946.03
2023-04-18T06:21:21.947Z,100132.94
2023-04-18T06:23:49.687Z,100107.09
2023-04-18T06:26:18.031Z,100158.50
2023-04-18T06:28:45.959Z,100274.16
2023-04-18T06:31:13.889Z,100314.06
2023-04-18T06:33:43.307Z,100456.00
2023-04-18T06:36:12.586Z,100532.38
2023-04-18T06:38:40.461Z,100557.94
2023-04-18T06:41:09.856Z,100605.22
2023-04-18T06:43:37.674Z,100674.72
2023-04-18T06:46:06.610Z,100858.09
2023-04-18T06:48:34.660Z,100804.03
2023-04-18T06:51:02.608Z,100934.81
2023-04-18T06:53:31.780Z,100947.00
2023-04-18T06:55:59.664Z,101098.31
2023-04-18T06:58:27.615Z,101128.84
2023-04-18T07:00:55.421Z,101087.88
2023-04-18T07:03:23.391Z,101160.56
2023-04-18T07:05:51.462Z,101293.44
2023-04-18T07:08:19.352Z,101305.75
2023-04-18T07:10:48.432Z,101352.13
2023-04-18T07:13:16.353Z,101465.88
2023-04-18T07:15:44.273Z,101562.31
2023-04-18T07:18:16.052Z,101570.97
2023-04-18T07:20:45.881Z,101576.56
2023-04-18T07:23:13.697Z,101648.25
2023-04-18T07:25:41.672Z,101758.03
2023-04-18T07:28:10.820Z,101827.38
2023-04-18T07:30:40.972Z,101920.44
2023-04-18T07:33:09.010Z,101883.53
2023-04-18T07:35:37.066Z,102027.72
2023-04-18T07:38:04.851Z,102104.84
2023-04-18T07:40:32.663Z,102080.50
2023-04-18T07:43:00.495Z,102062.06
2023-04-18T07:45:29.747Z,102183.25
2023-04-18T07:47:57.665Z,102206.22
2023-04-18T07:50:26.938Z,102352.44
2023-04-18T07:52:54.760Z,102593.63
2023-04-18T07:55:22.751Z,102509.06
2023-04-18T07:57:50.616Z,102497.88
2023-04-18T08:00:18.999Z,102345.44
2023-04-18T08:02:48.306Z,102170.34
2023-04-18T08:05:16.405Z,102195.16
2023-04-18T08:07:44.332Z,102249.69
2023-04-18T08:10:12.648Z,102264.56
2023-04-18T08:12:40.684Z,102374.56
2023-04-18T08:15:09.867Z,102577.25
2023-04-18T08:17:38.952Z,102734.03
2023-04-18T08:20:09.007Z,102774.72
2023-04-18T08:22:46.780Z,102828.69
2023-04-18T08:25:24.817Z,102945.25
2023-04-18T08:27:52.617Z,102860.56
2023-04-18T08:30:21.290Z,102980.63
2023-04-18T08:32:49.795Z,102939.31
2023-04-18T08:35:19.044Z,103052.25
2023-04-18T08:37:46.850Z,103163.63
2023-04-18T08:43:32.412Z,103196.53
2023-04-18T08:46:01.805Z,103127.06
2023-04-18T08:48:29.681Z,103131.13
2023-04-18T08:51:00.191Z,103214.94
2023-04-18T08:53:28.623Z,103530.19
2023-04-18T08:55:58.034Z,103531.94
2023-04-18T08:58:27.499Z,103686.22
2023-04-18T09:00:56.325Z,103854.81
2023-04-18T09:03:39.676Z,104222.69
2023-04-18T09:06:10.370Z,104207.69
2023-04-18T09:08:38.287Z,104341.09
2023-04-18T09:11:22.827Z,104132.22
2023-04-18T09:13:50.661Z,103777.75
2023-04-18T09:16:19.538Z,103964.25
2023-04-18T09:19:13.268Z,104301.94
2023-04-18T09:21:46.247Z,104458.66
2023-04-18T09:24:20.770Z,104925.97
2023-04-18T09:26:50.758Z,104916.16
2023-04-18T09:29:22.499Z,105240.63
2023-04-18T09:31:57.313Z,105645.44
2023-04-18T09:34:26.669Z,105309.69
2023-04-18T09:37:11.101Z,105416.06
2023-04-18T09:39:40.185Z,105430.38
2023-04-18T09:42:10.481Z,105393.84
2023-04-18T09:44:39.345Z,105514.69
2023-04-18T09:47:07.428Z,105759.31
2023-04-18T09:49:35.260Z,105977.38
2023-04-18T09:52:08.817Z,106420.59
2023-04-18T09:54:40.073Z,106527.00
2023-04-18T09:57:12.134Z,106739.59
2023-04-18T09:59:47.581Z,106238.91
2023-04-18T10:02:21.032Z,105862.53
2023-04-18T10:04:50.853Z,105492.19
2023-04-18T10:07:21.426Z,104959.06
2023-04-18T10:09:50.457Z,104232.72
2023-04-18T10:12:19.414Z,103913.44
2023-04-18T10:14:47.690Z,103880.59
2023-04-18T10:17:16.152Z,104012.91
2023-04-18T10:19:46.082Z,104682.25
2023-04-18T10:22:14.072Z,105181.44
2023-04-18T10:24:56.913Z,105239.53
2023-04-18T10:27:59.640Z,105863.03
2023-04-18T10:30:51.021Z,106193.75
2023-04-18T10:33:31.825Z,106112.84
2023-04-18T10:36:03.835Z,106378.25
2023-04-18T10:38:32.442Z,106445.59
2023-04-18T10:41:23.730Z,106778.34
2023-04-18T10:44:23.728Z,106321.50
2023-04-18T10:47:21.751Z,106871.91
2023-04-18T10:50:06.239Z,107045.31
2023-04-18T10:52:35.597Z,106789.94
2023-04-18T10:55:11.324Z,107010.88
2023-04-18T10:57:45.239Z,107124.72
2023-04-18T11:00:15.313Z,106821.38
2023-04-18T11:02:52.092Z,106969.28
2023-04-18T11:05:22.151Z,106743.78
2023-04-18T11:07:50.281Z,106943.94
2023-04-18T11:10:20.078Z,107194.38
2023-04-18T11:12:49.597Z,107715.47
2023-04-18T11:15:21.896Z,107695.59
2023-04-18T11:17:58.220Z,107223.94
2023-04-18T11:20:26.666Z,106699.47
2023-04-18T11:22:55.803Z,106275.19
2023-04-18T11:25:26.014Z,106446.19
2023-04-18T11:27:56.218Z,105989.28
2023-04-18T11:30:24.109Z,105398.44
2023-04-18T11:32:52.422Z,104906.53
2023-04-18T11:35:21.150Z,105122.69
2023-04-18T11:37:51.202Z,105695.56
2023-04-18T11:40:21.465Z,105972.88
2023-04-18T11:42:49.227Z,106692.75
2023-04-18T11:45:18.327Z,106604.44
2023-04-18T11:47:48.154Z,106433.28
2023-04-18T11:50:16.018Z,105715.28
2023-04-18T11:52:43.856Z,105854.25
2023-04-18T11:55:14.176Z,106356.53
2023-04-18T11:57:42.614Z,106442.13
2023-04-18T12:00:12.402Z,106367.38
2023-04-18T12:02:43.814Z,106715.00
2023-04-18T12:05:14.618Z,106615.88
2023-04-18T12:07:45.916Z,106900.81
2023-04-18T12:10:25.535Z,106917.09
2023-04-18T12:12:55.136Z,107185.22
2023-04-18T12:15:27.313Z,107257.63
2023-04-18T12:18:01.218Z,107166.34
2023-04-18T12:20:36.449Z,107462.84
2023-04-18T12:23:04.819Z,107188.78
2023-04-18T12:25:32.706Z,106788.81
2023-04-18T12:28:01.830Z,107097.44
2023-04-18T12:30:31.189Z,106804.19
2023-04-18T12:33:02.125Z,106657.09
2023-04-18T12:35:31.650Z,106763.38
2023-04-18T12:38:01.692Z,106431.78
2023-04-18T12:40:30.846Z,106890.38
2023-04-18T12:42:58.750Z,106897.59
2023-04-18T12:45:26.677Z,106856.22
2023-04-18T12:47:54.581Z,106836.28
2023-04-18T12:50:25.826Z,106981.53
2023-04-18T12:52:54.525Z,107013.94
2023-04-18T12:55:22.695Z,107207.50
2023-04-18T12:57:52.067Z,106589.16
2023-04-18T13:00:19.898Z,106519.63
2023-04-18T13:02:48.195Z,106545.94
2023-04-18T13:05:18.601Z,106686.41
2023-04-18T13:07:49.362Z,106421.44
2023-04-18T13:10:19.348Z,106840.53
2023-04-18T13:12:47.589Z,107034.69
2023-04-18T13:15:15.901Z,107105.94
2023-04-18T13:17:44.384Z,106849.34
2023-04-18T13:20:13.618Z,106955.03
2023-04-18T13:22:42.755Z,106856.59
2023-04-18T13:25:12.589Z,107277.44
2023-04-18T13:27:42.064Z,106787.94
2023-04-18T13:30:11.920Z,106703.16
2023-04-18T13:32:40.565Z,106662.69
2023-04-18T13:35:11.216Z,106148.53
2023-04-18T13:37:40.681Z,106221.31
2023-04-18T13:40:09.544Z,106284.16
2023-04-18T13:42:39.850Z,106268.78
2023-04-18T13:45:08.362Z,106519.94
2023-04-18T13:47:36.637Z,106369.59
2023-04-18T13:50:04.762Z,106396.56
2023-04-18T13:52:32.703Z,106573.00
2023-04-18T13:55:01.017Z,106349.69
2023-04-18T13:57:32.042Z,106273.22
2023-04-18T14:00:01.325Z,106429.69
2023-04-18T14:02:29.378Z,106212.81
2023-04-18T14:04:58.341Z,106392.78
2023-04-18T14:07:26.397Z,106754.03
2023-04-18T14:09:54.666Z,106873.97
2023-04-18T14:12:23.044Z,106948.84
2023-04-18T14:14:50.981Z,106800.84
2023-04-18T14:17:20.178Z,106639.34
2023-04-18T14:19:48.661Z,106697.00
2023-04-18T14:22:16.674Z,106549.19
2023-04-18T14:24:44.497Z,106085.03
2023-04-18T14:27:12.343Z,105951.81
2023-04-18T14:29:40.078Z,106052.47
2023-04-18T14:32:08.030Z,106063.22
2023-04-18T14:34:38.838Z,106111.72
2023-04-18T14:37:07.909Z,106275.28
2023-04-18T14:39:35.929Z,106135.00
2023-04-18T14:42:03.795Z,105760.50
2023-04-18T14:44:31.790Z,105773.06
2023-04-18T14:46:59.584Z,105772.09
2023-04-18T14:49:27.519Z,105861.66
2023-04-18T14:51:56.770Z,105843.88
2023-04-18T14:54:24.863Z,105711.09
2023-04-18T14:56:52.755Z,105404.63
2023-04-18T14:59:20.749Z,105487.03
2023-04-18T15:01:48.836Z,105273.91
2023-04-18T15:04:17.054Z,105376.69
2023-04-18T15:06:45.184Z,105701.81
2023-04-18T15:09:15.362Z,105709.03
2023-04-18T15:11:43.162Z,105220.97
2023-04-18T15:14:11.182Z,104998.47
2023-04-18T15:16:40.814Z,105101.06
2023-04-18T15:19:08.744Z,105294.09
2023-04-18T15:21:36.479Z,105515.34
2023-04-18T15:24:04.588Z,105266.38
2023-04-18T15:26:33.694Z,105050.09
2023-04-18T15:29:03.780Z,104682.22
2023-04-18T15:31:32.545Z,104548.56
2023-04-18T15:34:00.856Z,104162.34
2023-04-18T15:36:29.305Z,103732.47
2023-04-18T15:38:58.274Z,103412.41
2023-04-18T15:41:26.213Z,103391.09
2023-04-18T15:43:55.449Z,103359.31
2023-04-18T15:46:23.383Z,103140.84
2023-04-18T15:48:51.315Z,103241.72
2023-04-18T15:51:19.405Z,103416.66
2023-04-18T15:53:47.326Z,103453.88
2023-04-18T15:56:15.085Z,103593.69
2023-04-18T15:58:42.882Z,103541.50
2023-04-18T16:01:13.223Z,103221.28
2023-04-18T16:03:41.207Z,102989.50
2023-04-18T16:06:10.576Z,102913.66
2023-04-18T16:08:38.460Z,103066.34
2023-04-18T16:11:06.476Z,102810.28
2023-04-18T16:13:38.225Z,102337.16
2023-04-18T16:16:07.056Z,101963.75
2023-04-18T16:18:36.203Z,101489.34
2023-04-18T16:21:04.060Z,101308.94
2023-04-18T16:23:32.465Z,101238.56
2023-04-18T16:26:00.361Z,101137.47
2023-04-18T16:28:29.189Z,101000.56
2023-04-18T16:30:57.156Z,100827.66
2023-04-18T16:33:26.879Z,100684.69
2023-04-18T16:35:58.622Z,100526.91
2023-04-18T16:38:27.555Z,100414.59
2023-04-18T16:40:57.077Z,100290.47
2023-04-18T16:43:26.980Z,100222.47
2023-04-18T16:45:56.400Z,100213.88
2023-04-18T16:48:24.770Z,100176.38
2023-04-18T16:50:52.592Z,100128.13
2023-04-18T16:53:22.678Z,100117.34
2023-04-18T16:55:52.228Z,100088.69
2023-04-18T16:58:20.181Z,100045.19
2023-04-18T17:00:48.750Z,100018.22
2023-04-18T17:03:17.004Z,100006.03
2023-04-18T17:05:45.020Z,99988.03
2023-04-18T17:08:12.886Z,99934.13
2023-04-18T17:10:42.533Z,99875.22
2023-04-18T17:13:10.376Z,99804.94
2023-04-18T17:15:38.353Z,99773.53
2023-04-18T17:18:06.492Z,99763.16
2023-04-18T17:20:36.048Z,99727.81
2023-04-18T17:23:03.855Z,99699.34
2023-04-18T17:25:31.864Z,99642.75
2023-04-18T17:28:03.425Z,99607.31
2023-04-18T17:30:31.582Z,99577.06
2023-04-18T17:32:59.381Z,99557.91
2023-04-18T17:35:27.235Z,99510.16
2023-04-18T17:37:55.247Z,99489.72
2023-04-18T17:40:27.359Z,99437.69
2023-04-18T17:42:55.177Z,99389.97
2023-04-18T17:45:27.668Z,99329.56
2023-04-18T17:47:57.655Z,99299.19
2023-04-18T17:50:25.507Z,99246.50
2023-04-18T17:52:53.360Z,99244.13
2023-04-18T17:55:21.215Z,99221.50
2023-04-18T17:57:49.005Z,99198.84
2023-04-18T18:00:17.570Z,99171.34
2023-04-18T18:02:47.027Z,99143.56
2023-04-18T18:05:16.306Z,99135.72
2023-04-18T18:07:47.493Z,99081.50
2023-04-18T18:10:18.994Z,99032.09
2023-04-18T18:12:46.877Z,98960.63
2023-04-18T18:15:15.138Z,98921.03
2023-04-18T18:17:43.090Z,98855.47
2023-04-18T18:20:12.839Z,98798.31
2023-04-18T18:22:40.696Z,98793.44
2023-04-18T18:25:09.070Z,98789.94
2023-04-18T18:27:37.280Z,98761.38
2023-04-18T18:30:06.097Z,98729.72
2023-04-18T18:32:33.918Z,98717.75
2023-04-18T18:35:02.635Z,98649.63
2023-04-18T18:37:32.170Z,98670.25
2023-04-18T18:40:00.304Z,98638.09
2023-04-18T18:42:28.182Z,98603.84
2023-04-18T18:44:56.358Z,98562.63
2023-04-18T18:47:27.755Z,98526.44
2023-04-18T18:49:55.664Z,98502.91
2023-04-18T18:52:25.065Z,98456.00
2023-04-18T18:54:54.629Z,98419.88
2023-04-18T18:57:22.560Z,98361.47
2023-04-18T18:59:50.549Z,98380.38
2023-04-18T19:02:18.715Z,98331.44
2023-04-18T19:04:46.897Z,98344.09
2023-04-18T19:07:15.052Z,98299.47
2023-04-18T19:09:43.030Z,98297.25
2023-04-18T19:12:12.239Z,98292.81
2023-04-18T19:14:42.261Z,98270.16
2023-04-18T19:17:10.230Z,98192.06
2023-04-18T19:19:38.129Z,98146.66
2023-04-18T19:22:06.814Z,98085.56
2023-04-18T19:24:35.073Z,98048.94
2023-04-18T19:27:03.444Z,98044.34
2023-04-18T19:29:33.027Z,98025.88
2023-04-18T19:32:01.204Z,97997.00
2023-04-18T19:34:29.205Z,97989.38
2023-04-18T19:36:57.093Z,97989.53
2023-04-18T19:39:25.078Z,97968.47
2023-04-18T19:41:53.107Z,97961.25
2023-04-18T19:44:20.877Z,97932.41
2023-04-18T19:46:50.084Z,97930.47
2023-04-18T19:49:18.044Z,97922.94
2023-04-18T19:51:45.839Z,97926.84
2023-04-18T19:54:14.104Z,97891.75
2023-04-18T19:56:41.853Z,97855.03
2023-04-18T19:59:09.648Z,97812.09
2023-04-18T20:01:37.676Z,97800.03
2023-04-18T20:04:08.553Z,97800.16
2023-04-18T20:06:36.429Z,97785.59
2023-04-18T20:09:04.638Z,97771.06
2023-04-18T20:11:32.510Z,97764.41
2023-04-18T20:14:00.654Z,97710.97
2023-04-18T20:16:31.761Z,97697.66
2023-04-18T20:18:59.690Z,97674.94
2023-04-18T20:21:28.791Z,97647.00
2023-04-18T20:23:57.595Z,97623.88
2023-04-18T20:26:25.655Z,97627.34
2023-04-18T20:28:53.414Z,97618.75
2023-04-18T20:31:21.332Z,97591.34
2023-04-18T20:33:49.378Z,97545.66
2023-04-18T20:36:18.470Z,97516.09
2023-04-18T20:38:50.389Z,97497.28
2023-04-18T20:41:20.753Z,97480.09
2023-04-18T20:43:48.558Z,97446.66
2023-04-18T20:46:16.570Z,97454.38
2023-04-18T20:48:44.949Z,97459.66
2023-04-18T20:51:12.830Z,97465.59
2023-04-18T20:53:40.669Z,97460.34
2023-04-18T20:56:10.004Z,97447.47
2023-04-18T20:58:37.725Z,97411.84
2023-04-18T21:01:05.598Z,97402.28
2023-04-18T21:03:33.696Z,97386.81
2023-04-18T21:06:02.090Z,97374.78
2023-04-18T21:08:29.949Z,97358.75
2023-04-18T21:10:57.701Z,97311.78
2023-04-18T21:13:26.842Z,97274.22
2023-04-18T21:15:57.090Z,97277.66
2023-04-18T21:18:25.276Z,97256.38
2023-04-18T21:20:53.206Z,97205.84
2023-04-18T21:23:21.028Z,97206.00
2023-04-18T21:25:48.771Z,97163.19
2023-04-18T21:28:16.627Z,97178.66
2023-04-18T21:30:46.616Z,97179.19
2023-04-18T21:33:14.735Z,97170.94
2023-04-18T21:35:42.964Z,97137.66
2023-04-18T21:38:11.127Z,97150.19
2023-04-18T21:40:38.996Z,97130.75
2023-04-18T21:43:06.932Z,97119.88
2023-04-18T21:45:34.818Z,97088.13
2023-04-18T21:48:04.206Z,97076.28
2023-04-18T21:50:31.995Z,97041.22
2023-04-18T21:52:59.826Z,97068.53
2023-04-18T21:55:27.737Z,97066.88
2023-04-18T21:57:56.058Z,97051.41
2023-04-18T22:00:23.919Z,97009.47
2023-04-18T22:02:51.714Z,96979.72
2023-04-18T22:05:21.358Z,96979.72
2023-04-18T22:07:57.543Z,96956.84
2023-04-18T22:10:26.258Z,96947.47
2023-04-18T22:12:54.596Z,96920.16
2023-04-18T22:15:22.579Z,96938.91
2023-04-18T22:17:50.595Z,96924.44
2023-04-18T22:20:18.483Z,96909.97
2023-04-18T22:22:47.718Z,96864.78
2023-04-18T22:25:15.614Z,96856.53
2023-04-18T22:27:45.053Z,96840.25
2023-04-18T22:30:14.399Z,96831.72
2023-04-18T22:32:42.355Z,96805.94
2023-04-18T22:35:10.889Z,96819.56
2023-04-18T22:37:38.680Z,96860.66
2023-04-18T22:40:09.770Z,96857.22
2023-04-18T22:42:38.714Z,96839.97
2023-04-18T22:45:08.003Z,96791.78
2023-04-18T22:47:35.843Z,96801.16
2023-04-18T22:50:03.733Z,96778.53
2023-04-18T22:52:31.608Z,96758.31
2023-04-18T22:54:59.412Z,96780.47
2023-04-18T22:57:28.619Z,96750.75
2023-04-18T22:59:56.464Z,96724.91
2023-04-18T23:02:24.692Z,96725.94
2023-04-18T23:04:53.369Z,96709.84
2023-04-18T23:07:21.175Z,96680.28
2023-04-18T23:09:48.986Z,96655.81
2023-04-18T23:12:16.871Z,96688.00
2023-04-18T23:14:46.077Z,96658.94
2023-04-18T23:17:13.924Z,96641.06
2023-04-18T23:19:41.633Z,96620.53
2023-04-18T23:22:09.528Z,96627.41
2023-04-18T23:24:37.287Z,96657.31
2023-04-18T23:27:05.218Z,96649.44
2023-04-18T23:29:36.924Z,96632.66
2023-04-18T23:32:06.429Z,96631.97
2023-04-18T23:34:34.352Z,96636.81
2023-04-18T23:37:02.189Z,96617.25
2023-04-18T23:39:30.127Z,96574.91
2023-04-18T23:41:58.244Z,96572.28
2023-04-18T23:44:26.004Z,96562.78
2023-04-18T23:46:53.848Z,96549.19
2023-04-18T23:49:23.216Z,96520.28
2023-04-18T23:51:51.068Z,96494.03
2023-04-18T23:54:19.008Z,96474.53
2023-04-18T23:56:46.852Z,96471.25
2023-04-18T23:59:14.673Z,96454.22
